sensor_id;sensor_type;location;lat;lon;timestamp;temperature;humidity
48515;DHT22;34309;47.260;2.796;2023-02-02T00:01:34;22.40;17.90
48515;DHT22;34309;47.260;2.796;2023-02-02T00:04:09;22.40;18.00
48515;DHT22;34309;47.260;2.796;2023-02-02T00:06:47;22.30;18.10
48515;DHT22;34309;47.260;2.796;2023-02-02T00:09:21;22.40;18.80
48515;DHT22;34309;47.260;2.796;2023-02-02T00:11:57;22.40;18.30
48515;DHT22;34309;47.260;2.796;2023-02-02T00:14:31;22.40;18.60
48515;DHT22;34309;47.260;2.796;2023-02-02T00:17:08;22.40;18.30
48515;DHT22;34309;47.260;2.796;2023-02-02T00:19:43;22.50;18.30
48515;DHT22;34309;47.260;2.796;2023-02-02T00:22:17;22.50;18.30
48515;DHT22;34309;47.260;2.796;2023-02-02T00:24:51;22.50;18.20
48515;DHT22;34309;47.260;2.796;2023-02-02T00:27:26;22.60;18.20
48515;DHT22;34309;47.260;2.796;2023-02-02T00:30:00;22.60;18.20
48515;DHT22;34309;47.260;2.796;2023-02-02T00:32:34;22.70;18.20
48515;DHT22;34309;47.260;2.796;2023-02-02T00:35:08;22.70;18.00
48515;DHT22;34309;47.260;2.796;2023-02-02T00:37:42;22.70;18.00
48515;DHT22;34309;47.260;2.796;2023-02-02T00:40:16;22.80;18.00
48515;DHT22;34309;47.260;2.796;2023-02-02T00:42:52;22.80;18.00
48515;DHT22;34309;47.260;2.796;2023-02-02T00:45:25;22.80;17.90
48515;DHT22;34309;47.260;2.796;2023-02-02T00:47:58;22.90;17.90
48515;DHT22;34309;47.260;2.796;2023-02-02T00:50:32;22.90;17.80
48515;DHT22;34309;47.260;2.796;2023-02-02T00:53:05;23.00;17.90
48515;DHT22;34309;47.260;2.796;2023-02-02T00:55:39;23.00;17.80
48515;DHT22;34309;47.260;2.796;2023-02-02T00:58:14;22.90;17.70
48515;DHT22;34309;47.260;2.796;2023-02-02T01:00:50;22.90;17.80
48515;DHT22;34309;47.260;2.796;2023-02-02T01:03:24;22.90;17.80
48515;DHT22;34309;47.260;2.796;2023-02-02T01:05:58;22.80;17.70
48515;DHT22;34309;47.260;2.796;2023-02-02T01:08:32;22.80;17.70
48515;DHT22;34309;47.260;2.796;2023-02-02T01:11:06;22.80;17.80
48515;DHT22;34309;47.260;2.796;2023-02-02T01:13:41;22.80;17.70
48515;DHT22;34309;47.260;2.796;2023-02-02T01:16:15;22.70;17.70
48515;DHT22;34309;47.260;2.796;2023-02-02T01:18:49;22.70;17.70
48515;DHT22;34309;47.260;2.796;2023-02-02T01:21:23;22.70;18.30
48515;DHT22;34309;47.260;2.796;2023-02-02T01:23:57;22.70;17.90
48515;DHT22;34309;47.260;2.796;2023-02-02T01:26:30;22.70;17.90
48515;DHT22;34309;47.260;2.796;2023-02-02T01:29:05;22.60;17.80
48515;DHT22;34309;47.260;2.796;2023-02-02T01:31:39;22.70;17.90
48515;DHT22;34309;47.260;2.796;2023-02-02T01:34:13;22.60;17.90
48515;DHT22;34309;47.260;2.796;2023-02-02T01:36:47;22.60;18.50
48515;DHT22;34309;47.260;2.796;2023-02-02T01:39:22;22.50;17.80
48515;DHT22;34309;47.260;2.796;2023-02-02T01:41:55;22.50;17.90
48515;DHT22;34309;47.260;2.796;2023-02-02T01:45:11;22.50;17.90
48515;DHT22;34309;47.260;2.796;2023-02-02T01:47:51;22.40;17.80
48515;DHT22;34309;47.260;2.796;2023-02-02T01:50:27;22.40;17.90
48515;DHT22;34309;47.260;2.796;2023-02-02T01:53:03;22.30;17.90
48515;DHT22;34309;47.260;2.796;2023-02-02T01:55:39;22.30;18.00
48515;DHT22;34309;47.260;2.796;2023-02-02T01:58:15;22.30;18.00
48515;DHT22;34309;47.260;2.796;2023-02-02T02:00:52;22.20;18.10
48515;DHT22;34309;47.260;2.796;2023-02-02T02:03:29;22.20;18.20
48515;DHT22;34309;47.260;2.796;2023-02-02T02:06:07;22.20;18.20
48515;DHT22;34309;47.260;2.796;2023-02-02T02:08:47;22.20;18.30
48515;DHT22;34309;47.260;2.796;2023-02-02T02:11:23;22.30;18.30
48515;DHT22;34309;47.260;2.796;2023-02-02T02:13:59;22.30;18.30
48515;DHT22;34309;47.260;2.796;2023-02-02T02:17:04;22.40;18.30
48515;DHT22;34309;47.260;2.796;2023-02-02T02:20:08;22.40;18.20
48515;DHT22;34309;47.260;2.796;2023-02-02T02:23:21;22.40;18.20
48515;DHT22;34309;47.260;2.796;2023-02-02T02:27:02;22.50;18.20
48515;DHT22;34309;47.260;2.796;2023-02-02T02:33:02;22.70;18.10
48515;DHT22;34309;47.260;2.796;2023-02-02T02:35:41;22.70;18.00
48515;DHT22;34309;47.260;2.796;2023-02-02T02:38:24;22.70;18.00
48515;DHT22;34309;47.260;2.796;2023-02-02T02:41:01;22.70;17.90
48515;DHT22;34309;47.260;2.796;2023-02-02T02:43:40;22.70;17.90
48515;DHT22;34309;47.260;2.796;2023-02-02T02:46:14;22.70;17.80
48515;DHT22;34309;47.260;2.796;2023-02-02T02:48:49;22.70;17.80
48515;DHT22;34309;47.260;2.796;2023-02-02T02:51:45;22.70;17.80
48515;DHT22;34309;47.260;2.796;2023-02-02T02:54:23;22.70;17.80
48515;DHT22;34309;47.260;2.796;2023-02-02T03:07:43;22.60;17.80
48515;DHT22;34309;47.260;2.796;2023-02-02T03:10:21;22.60;17.80
48515;DHT22;34309;47.260;2.796;2023-02-02T03:12:56;22.60;17.80
48515;DHT22;34309;47.260;2.796;2023-02-02T03:15:31;22.60;17.80
48515;DHT22;34309;47.260;2.796;2023-02-02T03:18:05;22.60;17.90
48515;DHT22;34309;47.260;2.796;2023-02-02T03:20:39;22.50;17.80
48515;DHT22;34309;47.260;2.796;2023-02-02T03:23:14;22.50;17.80
48515;DHT22;34309;47.260;2.796;2023-02-02T03:25:48;22.50;17.80
48515;DHT22;34309;47.260;2.796;2023-02-02T03:28:23;22.40;17.80
48515;DHT22;34309;47.260;2.796;2023-02-02T03:30:58;22.40;17.80
48515;DHT22;34309;47.260;2.796;2023-02-02T03:33:35;22.40;17.90
48515;DHT22;34309;47.260;2.796;2023-02-02T03:36:09;22.30;17.90
48515;DHT22;34309;47.260;2.796;2023-02-02T03:38:45;22.30;17.90
48515;DHT22;34309;47.260;2.796;2023-02-02T03:41:18;22.30;18.00
48515;DHT22;34309;47.260;2.796;2023-02-02T03:43:52;22.20;18.00
48515;DHT22;34309;47.260;2.796;2023-02-02T03:46:26;22.20;18.00
48515;DHT22;34309;47.260;2.796;2023-02-02T03:49:00;22.10;18.10
48515;DHT22;34309;47.260;2.796;2023-02-02T03:51:33;22.20;18.30
48515;DHT22;34309;47.260;2.796;2023-02-02T03:54:08;22.20;18.30
48515;DHT22;34309;47.260;2.796;2023-02-02T03:56:42;22.20;18.30
48515;DHT22;34309;47.260;2.796;2023-02-02T03:59:16;22.20;18.30
48515;DHT22;34309;47.260;2.796;2023-02-02T04:01:50;22.20;18.30
48515;DHT22;34309;47.260;2.796;2023-02-02T04:04:23;22.30;18.30
48515;DHT22;34309;47.260;2.796;2023-02-02T04:06:57;22.30;18.20
48515;DHT22;34309;47.260;2.796;2023-02-02T04:09:34;22.30;18.10
48515;DHT22;34309;47.260;2.796;2023-02-02T04:12:07;22.40;18.10
48515;DHT22;34309;47.260;2.796;2023-02-02T04:14:41;22.40;18.10
48515;DHT22;34309;47.260;2.796;2023-02-02T04:17:15;22.40;18.10
48515;DHT22;34309;47.260;2.796;2023-02-02T04:19:49;22.40;17.90
48515;DHT22;34309;47.260;2.796;2023-02-02T04:22:24;22.40;17.90
48515;DHT22;34309;47.260;2.796;2023-02-02T04:25:00;22.50;17.90
48515;DHT22;34309;47.260;2.796;2023-02-02T04:27:34;22.40;18.00
48515;DHT22;34309;47.260;2.796;2023-02-02T04:30:09;22.40;17.90
48515;DHT22;34309;47.260;2.796;2023-02-02T04:32:43;22.50;17.90
48515;DHT22;34309;47.260;2.796;2023-02-02T04:35:17;22.40;17.90
48515;DHT22;34309;47.260;2.796;2023-02-02T04:37:51;22.40;18.00
48515;DHT22;34309;47.260;2.796;2023-02-02T04:40:26;22.40;18.00
48515;DHT22;34309;47.260;2.796;2023-02-02T04:43:00;22.40;17.90
48515;DHT22;34309;47.260;2.796;2023-02-02T04:45:34;22.40;17.90
48515;DHT22;34309;47.260;2.796;2023-02-02T04:48:08;22.40;17.90
48515;DHT22;34309;47.260;2.796;2023-02-02T04:50:41;22.40;18.00
48515;DHT22;34309;47.260;2.796;2023-02-02T04:53:15;22.40;17.90
48515;DHT22;34309;47.260;2.796;2023-02-02T04:55:50;22.30;17.90
48515;DHT22;34309;47.260;2.796;2023-02-02T04:58:24;22.30;17.80
48515;DHT22;34309;47.260;2.796;2023-02-02T05:00:58;22.30;17.80
48515;DHT22;34309;47.260;2.796;2023-02-02T05:03:31;22.20;17.80
48515;DHT22;34309;47.260;2.796;2023-02-02T05:06:05;22.20;17.90
48515;DHT22;34309;47.260;2.796;2023-02-02T05:08:39;22.20;17.90
48515;DHT22;34309;47.260;2.796;2023-02-02T05:11:17;22.20;18.00
48515;DHT22;34309;47.260;2.796;2023-02-02T05:13:53;22.10;17.80
48515;DHT22;34309;47.260;2.796;2023-02-02T05:16:27;22.10;17.90
48515;DHT22;34309;47.260;2.796;2023-02-02T05:19:01;22.00;17.80
48515;DHT22;34309;47.260;2.796;2023-02-02T05:21:35;22.00;18.00
48515;DHT22;34309;47.260;2.796;2023-02-02T05:24:09;21.90;18.00
48515;DHT22;34309;47.260;2.796;2023-02-02T05:26:44;21.90;18.00
48515;DHT22;34309;47.260;2.796;2023-02-02T05:29:18;21.90;18.20
48515;DHT22;34309;47.260;2.796;2023-02-02T05:31:52;21.90;18.30
48515;DHT22;34309;47.260;2.796;2023-02-02T05:34:26;21.90;18.30
48515;DHT22;34309;47.260;2.796;2023-02-02T05:37:00;22.00;18.40
48515;DHT22;34309;47.260;2.796;2023-02-02T05:39:33;22.00;18.20
48515;DHT22;34309;47.260;2.796;2023-02-02T05:42:08;22.10;18.20
48515;DHT22;34309;47.260;2.796;2023-02-02T05:44:42;22.10;18.20
48515;DHT22;34309;47.260;2.796;2023-02-02T05:47:16;22.10;18.20
48515;DHT22;34309;47.260;2.796;2023-02-02T05:49:49;22.20;18.20
48515;DHT22;34309;47.260;2.796;2023-02-02T05:52:24;22.20;18.10
48515;DHT22;34309;47.260;2.796;2023-02-02T05:54:58;22.30;18.00
48515;DHT22;34309;47.260;2.796;2023-02-02T05:57:34;22.40;17.90
48515;DHT22;34309;47.260;2.796;2023-02-02T06:00:09;22.40;18.00
48515;DHT22;34309;47.260;2.796;2023-02-02T06:02:43;22.50;17.90
48515;DHT22;34309;47.260;2.796;2023-02-02T06:05:19;22.60;17.80
48515;DHT22;34309;47.260;2.796;2023-02-02T06:07:55;22.60;17.80
48515;DHT22;34309;47.260;2.796;2023-02-02T06:10:30;22.70;17.80
48515;DHT22;34309;47.260;2.796;2023-02-02T06:13:06;22.70;17.60
48515;DHT22;34309;47.260;2.796;2023-02-02T06:15:39;22.70;17.50
48515;DHT22;34309;47.260;2.796;2023-02-02T06:18:14;22.60;17.70
48515;DHT22;34309;47.260;2.796;2023-02-02T06:20:54;22.60;17.70
48515;DHT22;34309;47.260;2.796;2023-02-02T06:23:28;22.60;17.50
48515;DHT22;34309;47.260;2.796;2023-02-02T06:26:02;22.60;17.50
48515;DHT22;34309;47.260;2.796;2023-02-02T06:28:38;22.50;17.50
48515;DHT22;34309;47.260;2.796;2023-02-02T06:31:11;22.50;17.50
48515;DHT22;34309;47.260;2.796;2023-02-02T06:33:47;22.50;17.70
48515;DHT22;34309;47.260;2.796;2023-02-02T06:36:22;22.40;17.60
48515;DHT22;34309;47.260;2.796;2023-02-02T06:38:56;22.40;17.70
48515;DHT22;34309;47.260;2.796;2023-02-02T06:41:30;22.30;17.70
48515;DHT22;34309;47.260;2.796;2023-02-02T06:44:05;22.30;17.80
48515;DHT22;34309;47.260;2.796;2023-02-02T06:46:39;22.20;17.90
48515;DHT22;34309;47.260;2.796;2023-02-02T06:49:13;22.20;18.00
48515;DHT22;34309;47.260;2.796;2023-02-02T06:51:47;22.20;17.90
48515;DHT22;34309;47.260;2.796;2023-02-02T06:54:20;22.10;17.90
48515;DHT22;34309;47.260;2.796;2023-02-02T06:56:54;22.10;18.00
48515;DHT22;34309;47.260;2.796;2023-02-02T06:59:29;22.10;18.00
48515;DHT22;34309;47.260;2.796;2023-02-02T07:02:03;22.00;18.00
48515;DHT22;34309;47.260;2.796;2023-02-02T07:04:37;22.00;18.10
48515;DHT22;34309;47.260;2.796;2023-02-02T07:07:10;22.00;18.00
48515;DHT22;34309;47.260;2.796;2023-02-02T07:09:44;21.90;18.10
48515;DHT22;34309;47.260;2.796;2023-02-02T07:12:18;21.90;18.20
48515;DHT22;34309;47.260;2.796;2023-02-02T07:14:53;21.90;18.20
48515;DHT22;34309;47.260;2.796;2023-02-02T07:17:26;21.80;18.10
48515;DHT22;34309;47.260;2.796;2023-02-02T07:20:00;21.80;18.40
48515;DHT22;34309;47.260;2.796;2023-02-02T07:22:37;21.80;18.30
48515;DHT22;34309;47.260;2.796;2023-02-02T07:25:11;21.90;18.50
48515;DHT22;34309;47.260;2.796;2023-02-02T07:27:45;21.90;18.40
48515;DHT22;34309;47.260;2.796;2023-02-02T07:30:24;21.90;18.40
48515;DHT22;34309;47.260;2.796;2023-02-02T07:33:00;22.00;18.30
48515;DHT22;34309;47.260;2.796;2023-02-02T07:35:34;22.10;18.30
48515;DHT22;34309;47.260;2.796;2023-02-02T07:38:08;22.20;18.20
48515;DHT22;34309;47.260;2.796;2023-02-02T07:40:37;22.20;18.10
48515;DHT22;34309;47.260;2.796;2023-02-02T07:43:11;22.30;18.10
48515;DHT22;34309;47.260;2.796;2023-02-02T07:45:47;22.40;18.00
48515;DHT22;34309;47.260;2.796;2023-02-02T07:48:20;22.40;17.90
48515;DHT22;34309;47.260;2.796;2023-02-02T07:50:57;22.50;17.90
48515;DHT22;34309;47.260;2.796;2023-02-02T07:53:32;22.50;17.80
48515;DHT22;34309;47.260;2.796;2023-02-02T07:56:07;22.60;17.80
48515;DHT22;34309;47.260;2.796;2023-02-02T07:58:41;22.60;17.70
48515;DHT22;34309;47.260;2.796;2023-02-02T08:01:17;22.70;17.80
48515;DHT22;34309;47.260;2.796;2023-02-02T08:03:55;22.60;17.60
48515;DHT22;34309;47.260;2.796;2023-02-02T08:06:31;22.60;17.70
48515;DHT22;34309;47.260;2.796;2023-02-02T08:09:07;22.60;17.70
48515;DHT22;34309;47.260;2.796;2023-02-02T08:11:41;22.60;17.70
48515;DHT22;34309;47.260;2.796;2023-02-02T08:14:15;22.60;17.60
48515;DHT22;34309;47.260;2.796;2023-02-02T08:16:50;22.60;17.90
48515;DHT22;34309;47.260;2.796;2023-02-02T08:19:24;22.60;17.90
48515;DHT22;34309;47.260;2.796;2023-02-02T08:22:00;22.50;18.00
48515;DHT22;34309;47.260;2.796;2023-02-02T08:24:34;22.40;18.00
48515;DHT22;34309;47.260;2.796;2023-02-02T08:27:11;22.40;18.10
48515;DHT22;34309;47.260;2.796;2023-02-02T08:29:45;22.40;18.80
48515;DHT22;34309;47.260;2.796;2023-02-02T08:32:20;22.30;18.20
48515;DHT22;34309;47.260;2.796;2023-02-02T08:34:54;22.30;18.10
48515;DHT22;34309;47.260;2.796;2023-02-02T08:37:27;22.30;18.40
48515;DHT22;34309;47.260;2.796;2023-02-02T08:40:01;22.20;18.40
48515;DHT22;34309;47.260;2.796;2023-02-02T08:42:35;22.20;18.30
48515;DHT22;34309;47.260;2.796;2023-02-02T08:45:09;22.20;18.50
48515;DHT22;34309;47.260;2.796;2023-02-02T08:47:44;22.10;18.60
48515;DHT22;34309;47.260;2.796;2023-02-02T08:50:18;22.10;18.60
48515;DHT22;34309;47.260;2.796;2023-02-02T08:52:52;22.00;18.80
48515;DHT22;34309;47.260;2.796;2023-02-02T08:55:26;22.00;18.80
48515;DHT22;34309;47.260;2.796;2023-02-02T08:58:00;21.90;18.80
48515;DHT22;34309;47.260;2.796;2023-02-02T09:00:29;21.90;18.90
48515;DHT22;34309;47.260;2.796;2023-02-02T09:03:04;21.90;18.90
48515;DHT22;34309;47.260;2.796;2023-02-02T09:05:38;21.80;18.90
48515;DHT22;34309;47.260;2.796;2023-02-02T09:08:12;21.80;19.10
48515;DHT22;34309;47.260;2.796;2023-02-02T09:10:46;21.80;19.10
48515;DHT22;34309;47.260;2.796;2023-02-02T09:13:19;21.70;19.20
48515;DHT22;34309;47.260;2.796;2023-02-02T09:15:58;21.70;19.20
48515;DHT22;34309;47.260;2.796;2023-02-02T09:18:34;21.70;19.30
48515;DHT22;34309;47.260;2.796;2023-02-02T09:21:11;21.70;19.30
48515;DHT22;34309;47.260;2.796;2023-02-02T09:23:46;21.70;19.40
48515;DHT22;34309;47.260;2.796;2023-02-02T09:26:22;21.70;19.40
48515;DHT22;34309;47.260;2.796;2023-02-02T09:28:53;21.80;19.30
48515;DHT22;34309;47.260;2.796;2023-02-02T09:31:27;21.90;19.10
48515;DHT22;34309;47.260;2.796;2023-02-02T09:34:07;22.00;19.10
48515;DHT22;34309;47.260;2.796;2023-02-02T09:36:37;22.10;19.00
48515;DHT22;34309;47.260;2.796;2023-02-02T09:39:11;22.20;19.00
48515;DHT22;34309;47.260;2.796;2023-02-02T09:42:06;22.20;18.80
48515;DHT22;34309;47.260;2.796;2023-02-02T09:45:02;22.30;18.80
48515;DHT22;34309;47.260;2.796;2023-02-02T09:47:53;22.40;18.80
48515;DHT22;34309;47.260;2.796;2023-02-02T09:50:40;22.40;18.80
48515;DHT22;34309;47.260;2.796;2023-02-02T09:53:20;22.40;18.80
48515;DHT22;34309;47.260;2.796;2023-02-02T09:55:57;22.40;18.70
48515;DHT22;34309;47.260;2.796;2023-02-02T09:58:35;22.40;18.90
48515;DHT22;34309;47.260;2.796;2023-02-02T10:01:14;22.40;18.80
48515;DHT22;34309;47.260;2.796;2023-02-02T10:03:57;22.30;18.80
48515;DHT22;34309;47.260;2.796;2023-02-02T10:06:36;22.30;18.90
48515;DHT22;34309;47.260;2.796;2023-02-02T10:09:23;22.30;19.10
48515;DHT22;34309;47.260;2.796;2023-02-02T10:12:02;22.30;18.90
48515;DHT22;34309;47.260;2.796;2023-02-02T10:14:41;22.30;19.10
48515;DHT22;34309;47.260;2.796;2023-02-02T10:17:32;22.20;19.10
48515;DHT22;34309;47.260;2.796;2023-02-02T10:20:25;22.20;19.10
48515;DHT22;34309;47.260;2.796;2023-02-02T10:23:12;22.10;19.10
48515;DHT22;34309;47.260;2.796;2023-02-02T10:25:53;22.10;19.10
48515;DHT22;34309;47.260;2.796;2023-02-02T10:28:31;22.00;19.10
48515;DHT22;34309;47.260;2.796;2023-02-02T10:31:15;22.00;19.10
48515;DHT22;34309;47.260;2.796;2023-02-02T10:34:00;22.00;19.40
48515;DHT22;34309;47.260;2.796;2023-02-02T10:39:49;21.90;19.60
48515;DHT22;34309;47.260;2.796;2023-02-02T10:42:32;21.90;19.60
48515;DHT22;34309;47.260;2.796;2023-02-02T10:45:13;21.90;19.50
48515;DHT22;34309;47.260;2.796;2023-02-02T10:47:50;21.90;19.40
48515;DHT22;34309;47.260;2.796;2023-02-02T10:50:24;21.90;19.30
48515;DHT22;34309;47.260;2.796;2023-02-02T10:53:00;21.90;19.40
48515;DHT22;34309;47.260;2.796;2023-02-02T10:55:41;21.80;19.20
48515;DHT22;34309;47.260;2.796;2023-02-02T10:58:22;21.80;19.30
48515;DHT22;34309;47.260;2.796;2023-02-02T11:00:59;21.80;19.40
48515;DHT22;34309;47.260;2.796;2023-02-02T11:03:35;21.80;19.40
48515;DHT22;34309;47.260;2.796;2023-02-02T11:06:11;21.70;19.40
48515;DHT22;34309;47.260;2.796;2023-02-02T11:09:04;21.70;19.40
48515;DHT22;34309;47.260;2.796;2023-02-02T11:11:43;21.60;19.50
48515;DHT22;34309;47.260;2.796;2023-02-02T11:14:26;21.60;19.50
48515;DHT22;34309;47.260;2.796;2023-02-02T11:17:02;21.50;19.30
48515;DHT22;34309;47.260;2.796;2023-02-02T11:19:36;21.50;19.40
48515;DHT22;34309;47.260;2.796;2023-02-02T11:22:27;21.40;19.40
48515;DHT22;34309;47.260;2.796;2023-02-02T11:25:05;21.40;19.50
48515;DHT22;34309;47.260;2.796;2023-02-02T11:27:42;21.40;19.40
48515;DHT22;34309;47.260;2.796;2023-02-02T11:30:26;21.30;19.40
48515;DHT22;34309;47.260;2.796;2023-02-02T11:33:19;21.30;19.50
48515;DHT22;34309;47.260;2.796;2023-02-02T11:35:55;21.30;19.40
48515;DHT22;34309;47.260;2.796;2023-02-02T11:38:30;21.30;19.50
48515;DHT22;34309;47.260;2.796;2023-02-02T11:41:05;21.20;19.40
48515;DHT22;34309;47.260;2.796;2023-02-02T11:43:48;21.20;19.50
48515;DHT22;34309;47.260;2.796;2023-02-02T11:46:20;21.20;19.50
48515;DHT22;34309;47.260;2.796;2023-02-02T11:48:59;21.20;19.50
48515;DHT22;34309;47.260;2.796;2023-02-02T11:51:35;21.10;19.50
48515;DHT22;34309;47.260;2.796;2023-02-02T11:54:15;21.10;19.60
48515;DHT22;34309;47.260;2.796;2023-02-02T11:56:51;21.10;19.40
48515;DHT22;34309;47.260;2.796;2023-02-02T11:59:32;21.10;19.50
48515;DHT22;34309;47.260;2.796;2023-02-02T12:02:24;21.10;19.50
48515;DHT22;34309;47.260;2.796;2023-02-02T12:05:33;21.00;19.40
48515;DHT22;34309;47.260;2.796;2023-02-02T12:08:09;21.00;19.50
48515;DHT22;34309;47.260;2.796;2023-02-02T12:10:48;21.00;19.50
48515;DHT22;34309;47.260;2.796;2023-02-02T12:16:40;20.90;19.50
48515;DHT22;34309;47.260;2.796;2023-02-02T12:20:00;20.90;19.60
48515;DHT22;34309;47.260;2.796;2023-02-02T12:22:53;20.90;19.50
48515;DHT22;34309;47.260;2.796;2023-02-02T12:28:46;20.90;19.50
48515;DHT22;34309;47.260;2.796;2023-02-02T12:31:31;20.90;19.50
48515;DHT22;34309;47.260;2.796;2023-02-02T12:34:15;20.90;19.50
48515;DHT22;34309;47.260;2.796;2023-02-02T12:36:59;20.80;19.60
48515;DHT22;34309;47.260;2.796;2023-02-02T12:39:42;20.80;19.50
48515;DHT22;34309;47.260;2.796;2023-02-02T12:42:32;20.80;19.60
48515;DHT22;34309;47.260;2.796;2023-02-02T12:45:29;20.80;19.50
48515;DHT22;34309;47.260;2.796;2023-02-02T12:48:15;20.80;19.60
48515;DHT22;34309;47.260;2.796;2023-02-02T12:51:03;20.70;19.60
48515;DHT22;34309;47.260;2.796;2023-02-02T12:54:00;20.70;19.60
48515;DHT22;34309;47.260;2.796;2023-02-02T12:56:41;20.70;19.60
48515;DHT22;34309;47.260;2.796;2023-02-02T12:59:29;20.70;19.60
48515;DHT22;34309;47.260;2.796;2023-02-02T13:02:16;20.70;19.60
48515;DHT22;34309;47.260;2.796;2023-02-02T13:05:08;20.60;19.60
48515;DHT22;34309;47.260;2.796;2023-02-02T13:08:04;20.60;19.70
48515;DHT22;34309;47.260;2.796;2023-02-02T13:10:41;20.60;19.70
48515;DHT22;34309;47.260;2.796;2023-02-02T13:13:17;20.60;19.80
48515;DHT22;34309;47.260;2.796;2023-02-02T13:15:56;20.60;19.70
48515;DHT22;34309;47.260;2.796;2023-02-02T13:18:34;20.50;19.60
48515;DHT22;34309;47.260;2.796;2023-02-02T13:21:12;20.50;19.60
48515;DHT22;34309;47.260;2.796;2023-02-02T13:23:54;20.50;19.60
48515;DHT22;34309;47.260;2.796;2023-02-02T13:26:25;20.50;19.70
48515;DHT22;34309;47.260;2.796;2023-02-02T13:29:04;20.50;19.70
48515;DHT22;34309;47.260;2.796;2023-02-02T13:31:44;20.50;19.70
48515;DHT22;34309;47.260;2.796;2023-02-02T13:34:22;20.40;19.70
48515;DHT22;34309;47.260;2.796;2023-02-02T13:37:01;20.40;19.70
48515;DHT22;34309;47.260;2.796;2023-02-02T13:39:41;20.50;20.30
48515;DHT22;34309;47.260;2.796;2023-02-02T13:42:25;20.40;19.80
48515;DHT22;34309;47.260;2.796;2023-02-02T13:45:08;20.40;20.10
48515;DHT22;34309;47.260;2.796;2023-02-02T13:47:54;20.40;19.80
48515;DHT22;34309;47.260;2.796;2023-02-02T13:50:32;20.40;19.70
48515;DHT22;34309;47.260;2.796;2023-02-02T13:53:31;20.40;19.80
48515;DHT22;34309;47.260;2.796;2023-02-02T13:59:29;20.30;19.80
48515;DHT22;34309;47.260;2.796;2023-02-02T14:02:02;20.30;19.80
48515;DHT22;34309;47.260;2.796;2023-02-02T14:04:38;20.30;19.90
48515;DHT22;34309;47.260;2.796;2023-02-02T14:07:12;20.40;19.80
48515;DHT22;34309;47.260;2.796;2023-02-02T14:09:41;20.40;19.80
48515;DHT22;34309;47.260;2.796;2023-02-02T14:12:27;20.50;19.90
48515;DHT22;34309;47.260;2.796;2023-02-02T14:15:02;20.50;19.80
48515;DHT22;34309;47.260;2.796;2023-02-02T14:17:54;20.70;19.80
48515;DHT22;34309;47.260;2.796;2023-02-02T14:20:46;20.90;19.60
48515;DHT22;34309;47.260;2.796;2023-02-02T14:23:48;21.10;19.60
48515;DHT22;34309;47.260;2.796;2023-02-02T14:26:43;21.30;19.40
48515;DHT22;34309;47.260;2.796;2023-02-02T14:29:57;21.70;19.30
48515;DHT22;34309;47.260;2.796;2023-02-02T14:32:32;22.00;19.50
48515;DHT22;34309;47.260;2.796;2023-02-02T14:38:45;22.40;18.70
48515;DHT22;34309;47.260;2.796;2023-02-02T14:41:30;22.70;18.40
48515;DHT22;34309;47.260;2.796;2023-02-02T14:44:25;22.90;18.10
48515;DHT22;34309;47.260;2.796;2023-02-02T14:47:00;23.00;18.00
48515;DHT22;34309;47.260;2.796;2023-02-02T14:49:36;23.00;17.80
48515;DHT22;34309;47.260;2.796;2023-02-02T14:52:20;23.10;18.00
48515;DHT22;34309;47.260;2.796;2023-02-02T14:54:58;23.10;17.90
48515;DHT22;34309;47.260;2.796;2023-02-02T14:57:32;23.10;17.70
48515;DHT22;34309;47.260;2.796;2023-02-02T15:00:20;23.10;17.70
48515;DHT22;34309;47.260;2.796;2023-02-02T15:03:31;23.10;17.60
48515;DHT22;34309;47.260;2.796;2023-02-02T15:06:13;23.10;17.60
48515;DHT22;34309;47.260;2.796;2023-02-02T15:09:26;23.00;17.60
48515;DHT22;34309;47.260;2.796;2023-02-02T15:12:22;23.00;17.70
48515;DHT22;34309;47.260;2.796;2023-02-02T15:15:11;23.00;17.70
48515;DHT22;34309;47.260;2.796;2023-02-02T15:18:03;23.00;17.60
48515;DHT22;34309;47.260;2.796;2023-02-02T15:20:42;22.90;17.50
48515;DHT22;34309;47.260;2.796;2023-02-02T15:23:25;22.90;17.50
48515;DHT22;34309;47.260;2.796;2023-02-02T15:26:03;22.80;17.40
48515;DHT22;34309;47.260;2.796;2023-02-02T15:28:40;22.80;17.40
48515;DHT22;34309;47.260;2.796;2023-02-02T15:31:17;22.70;17.40
48515;DHT22;34309;47.260;2.796;2023-02-02T15:33:57;22.70;17.60
48515;DHT22;34309;47.260;2.796;2023-02-02T15:36:35;22.70;17.50
48515;DHT22;34309;47.260;2.796;2023-02-02T15:39:15;22.60;17.50
48515;DHT22;34309;47.260;2.796;2023-02-02T15:41:52;22.60;17.50
48515;DHT22;34309;47.260;2.796;2023-02-02T15:44:46;22.60;17.60
48515;DHT22;34309;47.260;2.796;2023-02-02T15:47:27;22.50;17.60
48515;DHT22;34309;47.260;2.796;2023-02-02T15:50:16;22.50;17.60
48515;DHT22;34309;47.260;2.796;2023-02-02T15:52:53;22.40;17.60
48515;DHT22;34309;47.260;2.796;2023-02-02T15:55:30;22.40;17.60
48515;DHT22;34309;47.260;2.796;2023-02-02T15:58:28;22.40;17.80
48515;DHT22;34309;47.260;2.796;2023-02-02T16:01:04;22.30;17.70
48515;DHT22;34309;47.260;2.796;2023-02-02T16:03:44;22.30;17.80
48515;DHT22;34309;47.260;2.796;2023-02-02T16:06:23;22.20;17.60
48515;DHT22;34309;47.260;2.796;2023-02-02T16:08:56;22.20;17.70
48515;DHT22;34309;47.260;2.796;2023-02-02T16:11:30;22.20;17.80
48515;DHT22;34309;47.260;2.796;2023-02-02T16:14:06;22.10;17.60
48515;DHT22;34309;47.260;2.796;2023-02-02T16:16:41;22.10;17.70
48515;DHT22;34309;47.260;2.796;2023-02-02T16:19:19;22.00;17.70
48515;DHT22;34309;47.260;2.796;2023-02-02T16:21:59;22.00;17.80
48515;DHT22;34309;47.260;2.796;2023-02-02T16:24:38;21.90;18.00
48515;DHT22;34309;47.260;2.796;2023-02-02T16:27:15;21.90;17.80
48515;DHT22;34309;47.260;2.796;2023-02-02T16:29:51;21.80;17.90
48515;DHT22;34309;47.260;2.796;2023-02-02T16:32:27;21.80;18.00
48515;DHT22;34309;47.260;2.796;2023-02-02T16:35:03;21.90;18.10
48515;DHT22;34309;47.260;2.796;2023-02-02T16:37:39;21.90;18.00
48515;DHT22;34309;47.260;2.796;2023-02-02T16:40:18;22.00;18.00
48515;DHT22;34309;47.260;2.796;2023-02-02T16:43:04;22.10;17.90
48515;DHT22;34309;47.260;2.796;2023-02-02T16:45:46;22.30;17.90
48515;DHT22;34309;47.260;2.796;2023-02-02T16:48:27;22.30;17.80
48515;DHT22;34309;47.260;2.796;2023-02-02T16:54:16;22.40;17.70
48515;DHT22;34309;47.260;2.796;2023-02-02T16:56:57;22.50;18.30
48515;DHT22;34309;47.260;2.796;2023-02-02T16:59:33;22.50;17.60
48515;DHT22;34309;47.260;2.796;2023-02-02T17:02:19;22.60;17.50
48515;DHT22;34309;47.260;2.796;2023-02-02T17:04:59;22.60;17.50
48515;DHT22;34309;47.260;2.796;2023-02-02T17:07:36;22.60;17.40
48515;DHT22;34309;47.260;2.796;2023-02-02T17:10:20;22.70;17.60
48515;DHT22;34309;47.260;2.796;2023-02-02T17:12:55;22.60;17.40
48515;DHT22;34309;47.260;2.796;2023-02-02T17:15:34;22.70;17.50